sensor_id;sensor_type;location;lat;lon;timestamp;P1;durP1;ratioP1;P2;durP2;ratioP2
39924;SDS011;25592;49.986;11.618;2022-07-21T00:01:58;14.07;;;4.43;;
39924;SDS011;25592;49.986;11.618;2022-07-21T00:04:44;6.45;;;4.22;;
39924;SDS011;25592;49.986;11.618;2022-07-21T00:07:29;5.97;;;3.90;;
39924;SDS011;25592;49.986;11.618;2022-07-21T00:10:15;7.68;;;3.80;;
39924;SDS011;25592;49.986;11.618;2022-07-21T00:13:00;7.82;;;3.80;;
39924;SDS011;25592;49.986;11.618;2022-07-21T00:15:45;5.70;;;3.75;;
39924;SDS011;25592;49.986;11.618;2022-07-21T00:18:32;5.95;;;3.95;;
39924;SDS011;25592;49.986;11.618;2022-07-21T00:21:17;7.05;;;4.15;;
39924;SDS011;25592;49.986;11.618;2022-07-21T00:24:02;8.25;;;4.38;;
39924;SDS011;25592;49.986;11.618;2022-07-21T00:26:48;6.07;;;3.78;;
39924;SDS011;25592;49.986;11.618;2022-07-21T00:29:33;6.95;;;3.75;;
39924;SDS011;25592;49.986;11.618;2022-07-21T00:32:19;8.05;;;4.15;;
39924;SDS011;25592;49.986;11.618;2022-07-21T00:35:05;6.45;;;3.88;;
39924;SDS011;25592;49.986;11.618;2022-07-21T00:37:51;7.60;;;3.90;;
39924;SDS011;25592;49.986;11.618;2022-07-21T00:40:37;7.20;;;3.60;;
39924;SDS011;25592;49.986;11.618;2022-07-21T00:43:22;7.50;;;3.63;;
39924;SDS011;25592;49.986;11.618;2022-07-21T00:46:08;6.80;;;4.32;;
39924;SDS011;25592;49.986;11.618;2022-07-21T00:48:53;7.22;;;4.03;;
39924;SDS011;25592;49.986;11.618;2022-07-21T00:51:39;7.25;;;3.38;;
39924;SDS011;25592;49.986;11.618;2022-07-21T00:54:24;7.70;;;4.00;;
39924;SDS011;25592;49.986;11.618;2022-07-21T00:57:10;6.88;;;4.07;;
39924;SDS011;25592;49.986;11.618;2022-07-21T00:59:56;9.05;;;3.97;;
39924;SDS011;25592;49.986;11.618;2022-07-21T01:02:42;6.45;;;4.00;;
39924;SDS011;25592;49.986;11.618;2022-07-21T01:05:27;5.55;;;4.00;;
39924;SDS011;25592;49.986;11.618;2022-07-21T01:08:13;5.85;;;3.80;;
39924;SDS011;25592;49.986;11.618;2022-07-21T01:10:59;6.57;;;4.03;;
39924;SDS011;25592;49.986;11.618;2022-07-21T01:13:44;6.43;;;3.80;;
39924;SDS011;25592;49.986;11.618;2022-07-21T01:16:29;6.38;;;4.20;;
39924;SDS011;25592;49.986;11.618;2022-07-21T01:19:16;8.18;;;3.80;;
39924;SDS011;25592;49.986;11.618;2022-07-21T01:22:01;5.80;;;3.90;;
39924;SDS011;25592;49.986;11.618;2022-07-21T01:24:47;7.38;;;4.72;;
39924;SDS011;25592;49.986;11.618;2022-07-21T01:27:32;5.78;;;4.30;;
39924;SDS011;25592;49.986;11.618;2022-07-21T01:30:17;6.40;;;4.10;;
39924;SDS011;25592;49.986;11.618;2022-07-21T01:33:03;7.45;;;3.65;;
39924;SDS011;25592;49.986;11.618;2022-07-21T01:35:48;5.10;;;3.47;;
39924;SDS011;25592;49.986;11.618;2022-07-21T01:38:34;6.32;;;4.50;;
39924;SDS011;25592;49.986;11.618;2022-07-21T01:41:40;5.68;;;3.95;;
39924;SDS011;25592;49.986;11.618;2022-07-21T01:44:28;5.43;;;3.45;;
39924;SDS011;25592;49.986;11.618;2022-07-21T01:47:13;6.57;;;3.70;;
39924;SDS011;25592;49.986;11.618;2022-07-21T01:49:59;4.75;;;3.40;;
39924;SDS011;25592;49.986;11.618;2022-07-21T01:52:44;6.97;;;4.07;;
39924;SDS011;25592;49.986;11.618;2022-07-21T01:55:30;5.45;;;3.47;;
39924;SDS011;25592;49.986;11.618;2022-07-21T01:58:17;5.63;;;3.55;;
39924;SDS011;25592;49.986;11.618;2022-07-21T02:01:03;7.82;;;3.78;;
39924;SDS011;25592;49.986;11.618;2022-07-21T02:03:49;6.35;;;3.63;;
39924;SDS011;25592;49.986;11.618;2022-07-21T02:06:34;6.75;;;4.30;;
39924;SDS011;25592;49.986;11.618;2022-07-21T02:09:20;5.65;;;3.70;;
39924;SDS011;25592;49.986;11.618;2022-07-21T02:12:05;6.32;;;3.80;;
39924;SDS011;25592;49.986;11.618;2022-07-21T02:14:51;5.03;;;3.55;;
39924;SDS011;25592;49.986;11.618;2022-07-21T02:17:36;7.43;;;4.63;;
39924;SDS011;25592;49.986;11.618;2022-07-21T02:20:22;6.00;;;3.90;;
39924;SDS011;25592;49.986;11.618;2022-07-21T02:23:07;5.05;;;3.90;;
39924;SDS011;25592;49.986;11.618;2022-07-21T02:25:53;5.72;;;3.60;;
39924;SDS011;25592;49.986;11.618;2022-07-21T02:28:38;5.00;;;3.80;;
39924;SDS011;25592;49.986;11.618;2022-07-21T02:31:24;8.55;;;3.70;;
39924;SDS011;25592;49.986;11.618;2022-07-21T02:34:09;6.30;;;3.70;;
39924;SDS011;25592;49.986;11.618;2022-07-21T02:36:54;5.25;;;3.50;;
39924;SDS011;25592;49.986;11.618;2022-07-21T02:39:40;6.47;;;4.15;;
39924;SDS011;25592;49.986;11.618;2022-07-21T02:42:25;6.20;;;3.92;;
39924;SDS011;25592;49.986;11.618;2022-07-21T02:45:11;7.03;;;4.53;;
39924;SDS011;25592;49.986;11.618;2022-07-21T02:48:00;6.78;;;3.88;;
39924;SDS011;25592;49.986;11.618;2022-07-21T02:50:48;7.75;;;4.28;;
39924;SDS011;25592;49.986;11.618;2022-07-21T02:53:33;5.97;;;4.20;;
39924;SDS011;25592;49.986;11.618;2022-07-21T02:56:19;8.02;;;3.90;;
39924;SDS011;25592;49.986;11.618;2022-07-21T02:59:05;5.57;;;3.88;;
39924;SDS011;25592;49.986;11.618;2022-07-21T03:01:50;7.75;;;4.45;;
39924;SDS011;25592;49.986;11.618;2022-07-21T03:04:36;6.15;;;3.90;;
39924;SDS011;25592;49.986;11.618;2022-07-21T03:07:21;8.63;;;4.00;;
39924;SDS011;25592;49.986;11.618;2022-07-21T03:10:07;5.93;;;4.18;;
39924;SDS011;25592;49.986;11.618;2022-07-21T03:12:52;8.13;;;3.70;;
39924;SDS011;25592;49.986;11.618;2022-07-21T03:15:38;5.78;;;3.50;;
39924;SDS011;25592;49.986;11.618;2022-07-21T03:18:24;6.20;;;3.58;;
39924;SDS011;25592;49.986;11.618;2022-07-21T03:21:09;4.65;;;3.58;;
39924;SDS011;25592;49.986;11.618;2022-07-21T03:23:56;5.28;;;3.50;;
39924;SDS011;25592;49.986;11.618;2022-07-21T03:26:41;8.23;;;3.40;;
39924;SDS011;25592;49.986;11.618;2022-07-21T03:29:26;6.53;;;3.60;;
39924;SDS011;25592;49.986;11.618;2022-07-21T03:32:12;6.65;;;3.58;;
39924;SDS011;25592;49.986;11.618;2022-07-21T03:34:57;5.43;;;3.75;;
39924;SDS011;25592;49.986;11.618;2022-07-21T03:37:44;7.20;;;3.72;;
39924;SDS011;25592;49.986;11.618;2022-07-21T03:40:37;5.18;;;3.50;;
39924;SDS011;25592;49.986;11.618;2022-07-21T03:43:23;5.55;;;3.38;;
39924;SDS011;25592;49.986;11.618;2022-07-21T03:46:08;5.95;;;3.97;;
39924;SDS011;25592;49.986;11.618;2022-07-21T03:48:54;5.13;;;3.60;;
39924;SDS011;25592;49.986;11.618;2022-07-21T03:51:40;7.57;;;3.80;;
39924;SDS011;25592;49.986;11.618;2022-07-21T03:54:25;5.82;;;3.63;;
39924;SDS011;25592;49.986;11.618;2022-07-21T03:57:10;7.20;;;3.85;;
39924;SDS011;25592;49.986;11.618;2022-07-21T03:59:56;7.22;;;3.75;;
39924;SDS011;25592;49.986;11.618;2022-07-21T04:02:42;8.60;;;4.18;;
39924;SDS011;25592;49.986;11.618;2022-07-21T04:05:28;6.70;;;4.20;;
39924;SDS011;25592;49.986;11.618;2022-07-21T04:08:13;5.25;;;3.83;;
39924;SDS011;25592;49.986;11.618;2022-07-21T04:10:59;8.48;;;5.13;;
39924;SDS011;25592;49.986;11.618;2022-07-21T04:13:44;7.10;;;4.40;;
39924;SDS011;25592;49.986;11.618;2022-07-21T04:16:30;6.75;;;4.57;;
39924;SDS011;25592;49.986;11.618;2022-07-21T04:19:16;8.35;;;4.70;;
39924;SDS011;25592;49.986;11.618;2022-07-21T04:22:02;7.05;;;4.72;;
39924;SDS011;25592;49.986;11.618;2022-07-21T04:24:48;8.25;;;5.25;;
39924;SDS011;25592;49.986;11.618;2022-07-21T04:27:34;7.68;;;4.63;;
39924;SDS011;25592;49.986;11.618;2022-07-21T04:30:21;8.20;;;4.97;;
39924;SDS011;25592;49.986;11.618;2022-07-21T04:33:07;7.32;;;5.40;;
39924;SDS011;25592;49.986;11.618;2022-07-21T04:35:52;8.10;;;5.28;;
39924;SDS011;25592;49.986;11.618;2022-07-21T04:38:38;8.07;;;4.90;;
39924;SDS011;25592;49.986;11.618;2022-07-21T04:41:23;8.52;;;4.80;;
39924;SDS011;25592;49.986;11.618;2022-07-21T04:44:09;7.20;;;5.13;;
39924;SDS011;25592;49.986;11.618;2022-07-21T04:46:54;8.77;;;5.22;;
39924;SDS011;25592;49.986;11.618;2022-07-21T04:49:39;7.43;;;5.00;;
39924;SDS011;25592;49.986;11.618;2022-07-21T04:52:25;15.35;;;5.88;;
39924;SDS011;25592;49.986;11.618;2022-07-21T04:55:11;7.40;;;4.95;;
39924;SDS011;25592;49.986;11.618;2022-07-21T04:57:57;6.28;;;5.18;;
39924;SDS011;25592;49.986;11.618;2022-07-21T05:00:43;9.75;;;5.60;;
39924;SDS011;25592;49.986;11.618;2022-07-21T05:03:29;8.57;;;5.85;;
39924;SDS011;25592;49.986;11.618;2022-07-21T05:06:15;6.93;;;4.90;;
39924;SDS011;25592;49.986;11.618;2022-07-21T05:09:04;7.57;;;5.30;;
39924;SDS011;25592;49.986;11.618;2022-07-21T05:11:49;9.63;;;5.60;;
39924;SDS011;25592;49.986;11.618;2022-07-21T05:14:35;8.52;;;5.32;;
39924;SDS011;25592;49.986;11.618;2022-07-21T05:17:20;10.68;;;5.13;;
39924;SDS011;25592;49.986;11.618;2022-07-21T05:20:06;8.35;;;5.40;;
39924;SDS011;25592;49.986;11.618;2022-07-21T05:22:52;8.60;;;5.38;;
39924;SDS011;25592;49.986;11.618;2022-07-21T05:25:37;9.88;;;5.40;;
39924;SDS011;25592;49.986;11.618;2022-07-21T05:28:23;7.40;;;5.93;;
39924;SDS011;25592;49.986;11.618;2022-07-21T05:31:08;7.68;;;5.40;;
39924;SDS011;25592;49.986;11.618;2022-07-21T05:33:54;8.70;;;4.85;;
39924;SDS011;25592;49.986;11.618;2022-07-21T05:36:39;7.70;;;5.30;;
39924;SDS011;25592;49.986;11.618;2022-07-21T05:39:25;9.13;;;4.72;;
39924;SDS011;25592;49.986;11.618;2022-07-21T05:42:10;6.85;;;5.13;;
39924;SDS011;25592;49.986;11.618;2022-07-21T05:44:56;7.65;;;4.90;;
39924;SDS011;25592;49.986;11.618;2022-07-21T05:47:41;10.32;;;5.13;;
39924;SDS011;25592;49.986;11.618;2022-07-21T05:50:26;11.60;;;5.45;;
39924;SDS011;25592;49.986;11.618;2022-07-21T05:53:12;7.18;;;5.78;;
39924;SDS011;25592;49.986;11.618;2022-07-21T05:55:58;9.07;;;5.35;;
39924;SDS011;25592;49.986;11.618;2022-07-21T05:58:43;7.68;;;4.63;;
39924;SDS011;25592;49.986;11.618;2022-07-21T06:01:29;9.88;;;5.20;;
39924;SDS011;25592;49.986;11.618;2022-07-21T06:04:14;8.23;;;5.80;;
39924;SDS011;25592;49.986;11.618;2022-07-21T06:07:00;9.13;;;5.75;;
39924;SDS011;25592;49.986;11.618;2022-07-21T06:09:45;8.43;;;5.88;;
39924;SDS011;25592;49.986;11.618;2022-07-21T06:12:31;11.05;;;5.95;;
39924;SDS011;25592;49.986;11.618;2022-07-21T06:15:16;8.20;;;5.47;;
39924;SDS011;25592;49.986;11.618;2022-07-21T06:18:02;11.18;;;5.70;;
39924;SDS011;25592;49.986;11.618;2022-07-21T06:20:47;7.65;;;5.63;;
39924;SDS011;25592;49.986;11.618;2022-07-21T06:23:33;9.52;;;5.75;;
39924;SDS011;25592;49.986;11.618;2022-07-21T06:26:18;7.32;;;5.78;;
39924;SDS011;25592;49.986;11.618;2022-07-21T06:29:04;12.65;;;6.55;;
39924;SDS011;25592;49.986;11.618;2022-07-21T06:31:49;9.60;;;6.72;;
39924;SDS011;25592;49.986;11.618;2022-07-21T06:34:35;8.82;;;6.13;;
39924;SDS011;25592;49.986;11.618;2022-07-21T06:37:20;8.32;;;6.03;;
39924;SDS011;25592;49.986;11.618;2022-07-21T06:40:06;10.18;;;6.15;;
39924;SDS011;25592;49.986;11.618;2022-07-21T06:42:52;11.32;;;6.30;;
39924;SDS011;25592;49.986;11.618;2022-07-21T06:45:57;7.78;;;6.28;;
39924;SDS011;25592;49.986;11.618;2022-07-21T06:48:42;11.15;;;7.40;;
39924;SDS011;25592;49.986;11.618;2022-07-21T06:51:28;186.90;;;16.85;;
39924;SDS011;25592;49.986;11.618;2022-07-21T06:54:13;9.20;;;6.88;;
39924;SDS011;25592;49.986;11.618;2022-07-21T06:56:59;12.63;;;7.85;;
39924;SDS011;25592;49.986;11.618;2022-07-21T06:59:44;10.30;;;7.78;;
39924;SDS011;25592;49.986;11.618;2022-07-21T07:02:30;10.73;;;7.18;;
39924;SDS011;25592;49.986;11.618;2022-07-21T07:05:15;11.73;;;7.97;;
39924;SDS011;25592;49.986;11.618;2022-07-21T07:08:01;12.20;;;8.32;;
39924;SDS011;25592;49.986;11.618;2022-07-21T07:10:47;12.95;;;8.10;;
39924;SDS011;25592;49.986;11.618;2022-07-21T07:13:32;10.48;;;8.57;;
39924;SDS011;25592;49.986;11.618;2022-07-21T07:16:38;11.35;;;8.43;;
39924;SDS011;25592;49.986;11.618;2022-07-21T07:19:23;11.65;;;8.80;;
39924;SDS011;25592;49.986;11.618;2022-07-21T07:22:09;15.15;;;8.63;;
39924;SDS011;25592;49.986;11.618;2022-07-21T07:24:54;13.23;;;9.05;;
39924;SDS011;25592;49.986;11.618;2022-07-21T07:27:39;15.00;;;8.82;;
39924;SDS011;25592;49.986;11.618;2022-07-21T07:30:25;13.15;;;9.02;;
39924;SDS011;25592;49.986;11.618;2022-07-21T07:33:11;12.05;;;9.20;;
39924;SDS011;25592;49.986;11.618;2022-07-21T07:35:56;13.43;;;8.98;;
39924;SDS011;25592;49.986;11.618;2022-07-21T07:38:42;13.65;;;10.35;;
39924;SDS011;25592;49.986;11.618;2022-07-21T07:41:27;15.57;;;10.05;;
39924;SDS011;25592;49.986;11.618;2022-07-21T07:44:14;11.50;;;9.35;;
39924;SDS011;25592;49.986;11.618;2022-07-21T07:46:59;12.02;;;9.55;;
39924;SDS011;25592;49.986;11.618;2022-07-21T07:49:47;14.38;;;9.45;;
39924;SDS011;25592;49.986;11.618;2022-07-21T07:52:36;10.40;;;8.95;;
39924;SDS011;25592;49.986;11.618;2022-07-21T07:55:22;11.10;;;9.57;;
39924;SDS011;25592;49.986;11.618;2022-07-21T07:58:07;13.77;;;10.18;;
39924;SDS011;25592;49.986;11.618;2022-07-21T08:00:53;12.70;;;10.07;;
39924;SDS011;25592;49.986;11.618;2022-07-21T08:03:41;14.18;;;10.32;;
39924;SDS011;25592;49.986;11.618;2022-07-21T08:06:26;14.18;;;10.32;;
39924;SDS011;25592;49.986;11.618;2022-07-21T08:09:12;12.18;;;10.73;;
39924;SDS011;25592;49.986;11.618;2022-07-21T08:11:59;12.63;;;9.95;;
39924;SDS011;25592;49.986;11.618;2022-07-21T08:14:44;13.32;;;11.00;;
39924;SDS011;25592;49.986;11.618;2022-07-21T08:17:30;13.25;;;10.02;;
39924;SDS011;25592;49.986;11.618;2022-07-21T08:20:17;13.35;;;10.45;;
39924;SDS011;25592;49.986;11.618;2022-07-21T08:23:08;13.70;;;10.23;;
39924;SDS011;25592;49.986;11.618;2022-07-21T08:25:56;14.93;;;10.95;;
39924;SDS011;25592;49.986;11.618;2022-07-21T08:28:50;13.38;;;10.88;;
39924;SDS011;25592;49.986;11.618;2022-07-21T08:31:42;14.25;;;10.77;;
39924;SDS011;25592;49.986;11.618;2022-07-21T08:34:28;15.07;;;11.57;;
39924;SDS011;25592;49.986;11.618;2022-07-21T08:37:16;14.68;;;11.02;;
39924;SDS011;25592;49.986;11.618;2022-07-21T08:40:11;13.13;;;10.90;;
39924;SDS011;25592;49.986;11.618;2022-07-21T08:43:16;13.57;;;10.50;;
39924;SDS011;25592;49.986;11.618;2022-07-21T08:46:09;13.13;;;11.52;;
39924;SDS011;25592;49.986;11.618;2022-07-21T08:48:56;14.32;;;10.95;;
39924;SDS011;25592;49.986;11.618;2022-07-21T08:51:50;13.40;;;10.50;;
39924;SDS011;25592;49.986;11.618;2022-07-21T08:54:44;14.30;;;10.85;;
39924;SDS011;25592;49.986;11.618;2022-07-21T08:57:31;13.88;;;10.30;;
39924;SDS011;25592;49.986;11.618;2022-07-21T09:00:17;14.35;;;10.30;;
39924;SDS011;25592;49.986;11.618;2022-07-21T09:03:15;14.33;;;10.80;;
39924;SDS011;25592;49.986;11.618;2022-07-21T09:06:12;12.63;;;10.52;;
39924;SDS011;25592;49.986;11.618;2022-07-21T09:09:06;15.00;;;11.40;;
39924;SDS011;25592;49.986;11.618;2022-07-21T09:12:06;10.73;;;9.55;;
39924;SDS011;25592;49.986;11.618;2022-07-21T09:15:12;15.35;;;11.30;;
39924;SDS011;25592;49.986;11.618;2022-07-21T09:20:59;15.82;;;10.50;;
39924;SDS011;25592;49.986;11.618;2022-07-21T09:23:47;12.25;;;10.52;;
39924;SDS011;25592;49.986;11.618;2022-07-21T09:29:59;12.15;;;10.35;;
39924;SDS011;25592;49.986;11.618;2022-07-21T09:32:52;12.65;;;10.25;;
39924;SDS011;25592;49.986;11.618;2022-07-21T09:44:37;12.85;;;9.38;;
39924;SDS011;25592;49.986;11.618;2022-07-21T09:47:37;14.20;;;10.70;;
39924;SDS011;25592;49.986;11.618;2022-07-21T09:50:27;14.25;;;10.77;;
39924;SDS011;25592;49.986;11.618;2022-07-21T09:53:29;12.25;;;10.13;;
39924;SDS011;25592;49.986;11.618;2022-07-21T09:56:44;14.48;;;11.07;;
39924;SDS011;25592;49.986;11.618;2022-07-21T09:59:36;18.30;;;10.75;;
39924;SDS011;25592;49.986;11.618;2022-07-21T10:02:44;14.20;;;10.65;;
39924;SDS011;25592;49.986;11.618;2022-07-21T10:05:43;15.00;;;11.52;;
39924;SDS011;25592;49.986;11.618;2022-07-21T10:08:31;15.75;;;11.05;;
39924;SDS011;25592;49.986;11.618;2022-07-21T10:11:35;13.60;;;11.75;;
39924;SDS011;25592;49.986;11.618;2022-07-21T10:14:29;14.73;;;11.93;;
39924;SDS011;25592;49.986;11.618;2022-07-21T10:17:20;16.75;;;11.50;;
39924;SDS011;25592;49.986;11.618;2022-07-21T10:20:16;14.80;;;11.20;;
39924;SDS011;25592;49.986;11.618;2022-07-21T10:23:18;12.55;;;10.18;;
39924;SDS011;25592;49.986;11.618;2022-07-21T10:26:24;14.32;;;11.35;;
39924;SDS011;25592;49.986;11.618;2022-07-21T10:32:49;12.75;;;9.93;;
39924;SDS011;25592;49.986;11.618;2022-07-21T10:35:38;15.10;;;10.70;;
39924;SDS011;25592;49.986;11.618;2022-07-21T10:38:30;15.05;;;10.65;;
39924;SDS011;25592;49.986;11.618;2022-07-21T10:41:36;14.88;;;10.32;;
39924;SDS011;25592;49.986;11.618;2022-07-21T10:47:29;10.82;;;9.60;;
39924;SDS011;25592;49.986;11.618;2022-07-21T10:53:25;12.25;;;8.00;;
39924;SDS011;25592;49.986;11.618;2022-07-21T10:56:27;11.20;;;8.30;;
39924;SDS011;25592;49.986;11.618;2022-07-21T10:59:18;11.82;;;8.90;;
39924;SDS011;25592;49.986;11.618;2022-07-21T11:02:25;10.00;;;8.60;;
39924;SDS011;25592;49.986;11.618;2022-07-21T11:05:19;10.85;;;7.90;;
39924;SDS011;25592;49.986;11.618;2022-07-21T11:08:20;8.35;;;5.75;;
39924;SDS011;25592;49.986;11.618;2022-07-21T11:11:09;8.90;;;6.47;;
39924;SDS011;25592;49.986;11.618;2022-07-21T11:17:07;8.48;;;5.75;;
39924;SDS011;25592;49.986;11.618;2022-07-21T11:19:54;9.30;;;6.07;;
39924;SDS011;25592;49.986;11.618;2022-07-21T11:22:42;8.80;;;6.20;;
39924;SDS011;25592;49.986;11.618;2022-07-21T11:25:38;9.55;;;6.20;;
39924;SDS011;25592;49.986;11.618;2022-07-21T11:28:24;11.05;;;6.30;;
39924;SDS011;25592;49.986;11.618;2022-07-21T11:31:14;8.60;;;6.57;;
39924;SDS011;25592;49.986;11.618;2022-07-21T11:34:05;10.88;;;6.70;;
39924;SDS011;25592;49.986;11.618;2022-07-21T11:37:00;7.78;;;6.25;;
39924;SDS011;25592;49.986;11.618;2022-07-21T11:40:13;7.63;;;6.30;;
39924;SDS011;25592;49.986;11.618;2022-07-21T11:43:03;7.38;;;5.45;;
39924;SDS011;25592;49.986;11.618;2022-07-21T11:48:42;6.38;;;4.88;;
39924;SDS011;25592;49.986;11.618;2022-07-21T11:51:31;7.53;;;4.93;;
39924;SDS011;25592;49.986;11.618;2022-07-21T11:54:23;6.05;;;5.35;;
39924;SDS011;25592;49.986;11.618;2022-07-21T11:57:12;10.75;;;5.18;;
39924;SDS011;25592;49.986;11.618;2022-07-21T11:59:59;7.18;;;4.78;;
39924;SDS011;25592;49.986;11.618;2022-07-21T12:02:45;5.97;;;4.25;;
39924;SDS011;25592;49.986;11.618;2022-07-21T12:05:31;6.50;;;4.40;;
39924;SDS011;25592;49.986;11.618;2022-07-21T12:08:16;5.30;;;4.18;;
39924;SDS011;25592;49.986;11.618;2022-07-21T12:11:06;6.45;;;4.22;;
39924;SDS011;25592;49.986;11.618;2022-07-21T12:13:56;5.03;;;3.70;;
39924;SDS011;25592;49.986;11.618;2022-07-21T12:16:47;5.60;;;4.40;;
39924;SDS011;25592;49.986;11.618;2022-07-21T12:19:36;5.85;;;4.43;;
39924;SDS011;25592;49.986;11.618;2022-07-21T12:22:32;8.15;;;4.35;;
39924;SDS011;25592;49.986;11.618;2022-07-21T12:25:28;5.43;;;4.40;;
39924;SDS011;25592;49.986;11.618;2022-07-21T12:28:16;5.93;;;4.72;;
39924;SDS011;25592;49.986;11.618;2022-07-21T12:31:09;5.80;;;4.60;;
39924;SDS011;25592;49.986;11.618;2022-07-21T12:33:56;5.47;;;4.40;;
39924;SDS011;25592;49.986;11.618;2022-07-21T12:37:11;6.30;;;4.15;;
39924;SDS011;25592;49.986;11.618;2022-07-21T12:40:17;6.90;;;4.60;;
39924;SDS011;25592;49.986;11.618;2022-07-21T12:49:09;5.25;;;4.15;;
39924;SDS011;25592;49.986;11.618;2022-07-21T12:51:56;5.60;;;4.38;;
39924;SDS011;25592;49.986;11.618;2022-07-21T12:54:42;5.50;;;3.67;;
39924;SDS011;25592;49.986;11.618;2022-07-21T12:57:28;7.38;;;4.05;;
39924;SDS011;25592;49.986;11.618;2022-07-21T13:00:15;5.25;;;3.85;;
39924;SDS011;25592;49.986;11.618;2022-07-21T13:03:00;6.38;;;3.55;;
39924;SDS011;25592;49.986;11.618;2022-07-21T13:05:46;6.90;;;3.95;;
39924;SDS011;25592;49.986;11.618;2022-07-21T13:08:32;6.20;;;3.92;;
39924;SDS011;25592;49.986;11.618;2022-07-21T13:11:19;4.82;;;3.50;;
39924;SDS011;25592;49.986;11.618;2022-07-21T13:14:05;4.68;;;3.38;;
39924;SDS011;25592;49.986;11.618;2022-07-21T13:16:50;5.63;;;3.65;;
39924;SDS011;25592;49.986;11.618;2022-07-21T13:19:37;5.28;;;3.40;;
39924;SDS011;25592;49.986;11.618;2022-07-21T13:22:23;5.07;;;3.67;;
39924;SDS011;25592;49.986;11.618;2022-07-21T13:25:09;5.18;;;3.55;;
39924;SDS011;25592;49.986;11.618;2022-07-21T13:27:56;5.93;;;3.42;;
39924;SDS011;25592;49.986;11.618;2022-07-21T13:30:41;8.13;;;4.05;;
39924;SDS011;25592;49.986;11.618;2022-07-21T13:33:26;4.93;;;3.63;;
39924;SDS011;25592;49.986;11.618;2022-07-21T13:36:12;5.35;;;3.75;;
39924;SDS011;25592;49.986;11.618;2022-07-21T13:38:59;5.53;;;3.78;;
39924;SDS011;25592;49.986;11.618;2022-07-21T13:42:06;7.32;;;3.50;;
39924;SDS011;25592;49.986;11.618;2022-07-21T13:45:12;6.72;;;3.63;;
39924;SDS011;25592;49.986;11.618;2022-07-21T13:47:58;4.85;;;3.75;;
39924;SDS011;25592;49.986;11.618;2022-07-21T13:50:44;5.47;;;3.42;;
39924;SDS011;25592;49.986;11.618;2022-07-21T13:53:30;5.82;;;3.60;;
39924;SDS011;25592;49.986;11.618;2022-07-21T13:56:15;5.80;;;3.42;;
39924;SDS011;25592;49.986;11.618;2022-07-21T13:59:02;7.45;;;3.17;;
39924;SDS011;25592;49.986;11.618;2022-07-21T14:01:47;4.85;;;3.40;;
39924;SDS011;25592;49.986;11.618;2022-07-21T14:04:33;5.15;;;3.28;;
39924;SDS011;25592;49.986;11.618;2022-07-21T14:07:19;5.53;;;3.45;;
39924;SDS011;25592;49.986;11.618;2022-07-21T14:10:05;4.70;;;3.67;;
39924;SDS011;25592;49.986;11.618;2022-07-21T14:12:51;4.43;;;3.30;;
39924;SDS011;25592;49.986;11.618;2022-07-21T14:15:36;3.88;;;2.90;;
39924;SDS011;25592;49.986;11.618;2022-07-21T14:18:22;4.70;;;2.90;;
39924;SDS011;25592;49.986;11.618;2022-07-21T14:21:07;5.07;;;3.10;;
39924;SDS011;25592;49.986;11.618;2022-07-21T14:23:53;4.70;;;3.08;;
39924;SDS011;25592;49.986;11.618;2022-07-21T14:26:57;5.25;;;2.85;;
39924;SDS011;25592;49.986;11.618;2022-07-21T14:29:42;5.57;;;2.80;;
39924;SDS011;25592;49.986;11.618;2022-07-21T14:32:27;6.95;;;3.05;;
39924;SDS011;25592;49.986;11.618;2022-07-21T14:35:13;3.95;;;2.63;;
39924;SDS011;25592;49.986;11.618;2022-07-21T14:38:01;8.27;;;3.33;;
39924;SDS011;25592;49.986;11.618;2022-07-21T14:40:46;3.95;;;2.80;;
39924;SDS011;25592;49.986;11.618;2022-07-21T14:43:32;5.15;;;3.25;;
39924;SDS011;25592;49.986;11.618;2022-07-21T14:46:17;4.18;;;2.75;;
39924;SDS011;25592;49.986;11.618;2022-07-21T14:49:03;4.13;;;2.70;;
39924;SDS011;25592;49.986;11.618;2022-07-21T14:51:48;4.75;;;3.00;;
39924;SDS011;25592;49.986;11.618;2022-07-21T14:54:34;5.35;;;3.13;;
39924;SDS011;25592;49.986;11.618;2022-07-21T14:57:20;5.32;;;2.97;;
39924;SDS011;25592;49.986;11.618;2022-07-21T15:00:06;6.55;;;3.63;;
39924;SDS011;25592;49.986;11.618;2022-07-21T15:02:53;5.75;;;3.42;;
39924;SDS011;25592;49.986;11.618;2022-07-21T15:05:39;5.28;;;3.10;;
39924;SDS011;25592;49.986;11.618;2022-07-21T15:08:25;4.47;;;2.90;;
39924;SDS011;25592;49.986;11.618;2022-07-21T15:11:10;5.60;;;3.47;;
39924;SDS011;25592;49.986;11.618;2022-07-21T15:13:55;6.85;;;3.53;;
39924;SDS011;25592;49.986;11.618;2022-07-21T15:16:41;5.72;;;2.80;;
39924;SDS011;25592;49.986;11.618;2022-07-21T15:19:27;5.95;;;2.97;;
39924;SDS011;25592;49.986;11.618;2022-07-21T15:22:13;4.35;;;3.25;;
39924;SDS011;25592;49.986;11.618;2022-07-21T15:24:59;4.22;;;2.90;;
39924;SDS011;25592;49.986;11.618;2022-07-21T15:27:44;7.70;;;3.50;;
39924;SDS011;25592;49.986;11.618;2022-07-21T15:30:30;4.88;;;2.75;;
39924;SDS011;25592;49.986;11.618;2022-07-21T15:33:16;7.53;;;3.25;;
39924;SDS011;25592;49.986;11.618;2022-07-21T15:36:02;6.05;;;3.55;;
39924;SDS011;25592;49.986;11.618;2022-07-21T15:38:47;4.10;;;3.08;;
39924;SDS011;25592;49.986;11.618;2022-07-21T15:41:34;3.65;;;2.80;;
39924;SDS011;25592;49.986;11.618;2022-07-21T15:44:38;6.03;;;3.40;;
39924;SDS011;25592;49.986;11.618;2022-07-21T15:47:24;5.97;;;3.13;;
39924;SDS011;25592;49.986;11.618;2022-07-21T15:50:09;5.28;;;3.28;;
39924;SDS011;25592;49.986;11.618;2022-07-21T15:52:57;6.18;;;3.22;;
39924;SDS011;25592;49.986;11.618;2022-07-21T15:55:43;5.57;;;3.58;;
39924;SDS011;25592;49.986;11.618;2022-07-21T15:58:36;5.00;;;2.95;;
39924;SDS011;25592;49.986;11.618;2022-07-21T16:01:42;6.20;;;2.90;;
39924;SDS011;25592;49.986;11.618;2022-07-21T16:04:28;7.03;;;2.80;;
39924;SDS011;25592;49.986;11.618;2022-07-21T16:07:13;5.10;;;3.00;;
39924;SDS011;25592;49.986;11.618;2022-07-21T16:09:59;7.00;;;3.47;;
39924;SDS011;25592;49.986;11.618;2022-07-21T16:12:44;4.25;;;2.88;;
39924;SDS011;25592;49.986;11.618;2022-07-21T16:15:31;4.72;;;3.05;;
39924;SDS011;25592;49.986;11.618;2022-07-21T16:18:17;4.13;;;3.05;;
39924;SDS011;25592;49.986;11.618;2022-07-21T16:21:04;5.10;;;3.00;;
39924;SDS011;25592;49.986;11.618;2022-07-21T16:23:50;4.20;;;2.85;;
39924;SDS011;25592;49.986;11.618;2022-07-21T16:26:36;6.13;;;3.22;;
39924;SDS011;25592;49.986;11.618;2022-07-21T16:29:21;6.20;;;3.92;;
39924;SDS011;25592;49.986;11.618;2022-07-21T16:32:07;3.97;;;2.63;;
39924;SDS011;25592;49.986;11.618;2022-07-21T16:34:52;7.05;;;3.15;;
39924;SDS011;25592;49.986;11.618;2022-07-21T16:37:37;6.50;;;2.88;;
39924;SDS011;25592;49.986;11.618;2022-07-21T16:40:24;6.60;;;3.28;;
39924;SDS011;25592;49.986;11.618;2022-07-21T16:43:09;7.20;;;2.90;;
39924;SDS011;25592;49.986;11.618;2022-07-21T16:45:54;5.30;;;2.55;;
39924;SDS011;25592;49.986;11.618;2022-07-21T16:48:40;5.60;;;3.10;;
39924;SDS011;25592;49.986;11.618;2022-07-21T16:51:25;5.18;;;3.10;;
39924;SDS011;25592;49.986;11.618;2022-07-21T16:54:11;8.63;;;3.10;;
39924;SDS011;25592;49.986;11.618;2022-07-21T16:56:57;4.13;;;2.65;;
39924;SDS011;25592;49.986;11.618;2022-07-21T16:59:42;6.30;;;3.03;;
39924;SDS011;25592;49.986;11.618;2022-07-21T17:02:29;4.68;;;2.85;;
39924;SDS011;25592;49.986;11.618;2022-07-21T17:05:17;8.30;;;3.60;;
39924;SDS011;25592;49.986;11.618;2022-07-21T17:08:02;4.32;;;2.55;;